sensor_id;sensor_type;location;lat;lon;timestamp;P1;durP1;ratioP1;P2;durP2;ratioP2
41139;SDS011;26881;48.784;9.192;2022-08-19T00:01:32;14.02;;;12.60;;
41139;SDS011;26881;48.784;9.192;2022-08-19T00:06:58;12.95;;;11.75;;
41139;SDS011;26881;48.784;9.192;2022-08-19T00:12:21;13.63;;;12.32;;
41139;SDS011;26881;48.784;9.192;2022-08-19T00:17:43;14.57;;;12.32;;
41139;SDS011;26881;48.784;9.192;2022-08-19T00:23:06;14.82;;;12.95;;
41139;SDS011;26881;48.784;9.192;2022-08-19T00:28:28;15.32;;;12.73;;
41139;SDS011;26881;48.784;9.192;2022-08-19T00:33:49;14.02;;;12.73;;
41139;SDS011;26881;48.784;9.192;2022-08-19T00:39:12;14.32;;;12.95;;
41139;SDS011;26881;48.784;9.192;2022-08-19T00:44:35;14.20;;;12.70;;
41139;SDS011;26881;48.784;9.192;2022-08-19T00:49:57;13.68;;;12.30;;
41139;SDS011;26881;48.784;9.192;2022-08-19T00:55:21;17.67;;;12.88;;
41139;SDS011;26881;48.784;9.192;2022-08-19T01:00:45;16.75;;;12.65;;
41139;SDS011;26881;48.784;9.192;2022-08-19T01:06:08;16.80;;;12.75;;
41139;SDS011;26881;48.784;9.192;2022-08-19T01:11:31;14.88;;;12.95;;
41139;SDS011;26881;48.784;9.192;2022-08-19T01:16:56;14.40;;;12.93;;
41139;SDS011;26881;48.784;9.192;2022-08-19T01:27:52;14.90;;;13.32;;
41139;SDS011;26881;48.784;9.192;2022-08-19T01:33:14;17.23;;;13.02;;
41139;SDS011;26881;48.784;9.192;2022-08-19T01:38:37;15.98;;;14.27;;
41139;SDS011;26881;48.784;9.192;2022-08-19T01:44:05;16.25;;;14.13;;
41139;SDS011;26881;48.784;9.192;2022-08-19T01:49:40;16.25;;;13.30;;
41139;SDS011;26881;48.784;9.192;2022-08-19T01:55:03;15.70;;;14.18;;
41139;SDS011;26881;48.784;9.192;2022-08-19T02:00:27;19.40;;;15.10;;
41139;SDS011;26881;48.784;9.192;2022-08-19T02:05:57;16.75;;;14.10;;
41139;SDS011;26881;48.784;9.192;2022-08-19T02:11:28;16.67;;;14.93;;
41139;SDS011;26881;48.784;9.192;2022-08-19T02:16:55;18.30;;;15.63;;
41139;SDS011;26881;48.784;9.192;2022-08-19T02:22:17;17.45;;;15.65;;
41139;SDS011;26881;48.784;9.192;2022-08-19T02:27:40;19.73;;;15.57;;
41139;SDS011;26881;48.784;9.192;2022-08-19T02:33:02;18.35;;;16.42;;
41139;SDS011;26881;48.784;9.192;2022-08-19T02:38:24;19.45;;;17.35;;
41139;SDS011;26881;48.784;9.192;2022-08-19T02:43:48;19.20;;;17.20;;
41139;SDS011;26881;48.784;9.192;2022-08-19T02:49:30;20.10;;;17.70;;
41139;SDS011;26881;48.784;9.192;2022-08-19T02:54:55;19.98;;;17.63;;
41139;SDS011;26881;48.784;9.192;2022-08-19T03:00:18;20.80;;;17.33;;
41139;SDS011;26881;48.784;9.192;2022-08-19T03:05:41;20.35;;;18.25;;
41139;SDS011;26881;48.784;9.192;2022-08-19T03:16:44;20.58;;;18.38;;
41139;SDS011;26881;48.784;9.192;2022-08-19T03:22:08;21.63;;;19.38;;
41139;SDS011;26881;48.784;9.192;2022-08-19T03:27:30;20.70;;;18.50;;
41139;SDS011;26881;48.784;9.192;2022-08-19T03:32:55;21.52;;;18.48;;
41139;SDS011;26881;48.784;9.192;2022-08-19T03:38:17;21.25;;;18.52;;
41139;SDS011;26881;48.784;9.192;2022-08-19T03:43:40;22.38;;;19.67;;
41139;SDS011;26881;48.784;9.192;2022-08-19T03:49:03;23.15;;;20.65;;
41139;SDS011;26881;48.784;9.192;2022-08-19T03:54:28;22.92;;;20.42;;
41139;SDS011;26881;48.784;9.192;2022-08-19T03:59:50;23.38;;;19.58;;
41139;SDS011;26881;48.784;9.192;2022-08-19T04:05:12;21.52;;;18.30;;
41139;SDS011;26881;48.784;9.192;2022-08-19T04:10:35;23.05;;;20.42;;
41139;SDS011;26881;48.784;9.192;2022-08-19T04:15:58;29.00;;;22.40;;
41139;SDS011;26881;48.784;9.192;2022-08-19T04:21:21;24.98;;;21.77;;
41139;SDS011;26881;48.784;9.192;2022-08-19T04:26:45;26.02;;;22.73;;
41139;SDS011;26881;48.784;9.192;2022-08-19T04:32:07;24.52;;;21.75;;
41139;SDS011;26881;48.784;9.192;2022-08-19T04:37:30;26.30;;;22.15;;
41139;SDS011;26881;48.784;9.192;2022-08-19T04:42:56;25.98;;;21.40;;
41139;SDS011;26881;48.784;9.192;2022-08-19T04:48:18;25.55;;;22.48;;
41139;SDS011;26881;48.784;9.192;2022-08-19T04:53:48;22.85;;;20.55;;
41139;SDS011;26881;48.784;9.192;2022-08-19T04:59:10;23.80;;;21.23;;
41139;SDS011;26881;48.784;9.192;2022-08-19T05:04:32;24.35;;;21.80;;
41139;SDS011;26881;48.784;9.192;2022-08-19T05:09:54;25.13;;;21.83;;
41139;SDS011;26881;48.784;9.192;2022-08-19T05:15:19;23.23;;;20.75;;
41139;SDS011;26881;48.784;9.192;2022-08-19T05:20:41;27.10;;;21.50;;
41139;SDS011;26881;48.784;9.192;2022-08-19T05:26:21;23.08;;;20.67;;
41139;SDS011;26881;48.784;9.192;2022-08-19T05:31:43;22.75;;;20.20;;
41139;SDS011;26881;48.784;9.192;2022-08-19T05:37:06;28.40;;;22.83;;
41139;SDS011;26881;48.784;9.192;2022-08-19T05:42:28;24.50;;;21.70;;
41139;SDS011;26881;48.784;9.192;2022-08-19T05:47:51;24.67;;;21.60;;
41139;SDS011;26881;48.784;9.192;2022-08-19T05:53:13;26.05;;;23.27;;
41139;SDS011;26881;48.784;9.192;2022-08-19T05:58:38;35.28;;;22.33;;
41139;SDS011;26881;48.784;9.192;2022-08-19T06:04:00;23.13;;;20.67;;
41139;SDS011;26881;48.784;9.192;2022-08-19T06:09:24;24.48;;;20.15;;
41139;SDS011;26881;48.784;9.192;2022-08-19T06:14:45;26.52;;;20.38;;
41139;SDS011;26881;48.784;9.192;2022-08-19T06:20:21;23.88;;;20.75;;
41139;SDS011;26881;48.784;9.192;2022-08-19T06:26:03;25.80;;;21.60;;
41139;SDS011;26881;48.784;9.192;2022-08-19T06:31:26;26.33;;;20.73;;
41139;SDS011;26881;48.784;9.192;2022-08-19T06:36:50;23.27;;;20.42;;
41139;SDS011;26881;48.784;9.192;2022-08-19T06:42:13;28.42;;;21.75;;
41139;SDS011;26881;48.784;9.192;2022-08-19T06:47:38;26.20;;;22.00;;
41139;SDS011;26881;48.784;9.192;2022-08-19T06:53:00;24.77;;;22.17;;
41139;SDS011;26881;48.784;9.192;2022-08-19T06:58:25;25.33;;;22.63;;
41139;SDS011;26881;48.784;9.192;2022-08-19T07:03:53;25.67;;;22.98;;
41139;SDS011;26881;48.784;9.192;2022-08-19T07:09:15;26.35;;;23.67;;
41139;SDS011;26881;48.784;9.192;2022-08-19T07:14:41;26.05;;;23.05;;
41139;SDS011;26881;48.784;9.192;2022-08-19T07:20:03;24.10;;;21.50;;
41139;SDS011;26881;48.784;9.192;2022-08-19T07:25:30;25.63;;;21.55;;
41139;SDS011;26881;48.784;9.192;2022-08-19T07:30:53;24.85;;;22.23;;
41139;SDS011;26881;48.784;9.192;2022-08-19T07:36:16;23.77;;;21.33;;
41139;SDS011;26881;48.784;9.192;2022-08-19T07:41:40;22.85;;;20.60;;
41139;SDS011;26881;48.784;9.192;2022-08-19T07:47:02;20.98;;;18.98;;
41139;SDS011;26881;48.784;9.192;2022-08-19T07:52:25;23.02;;;20.58;;
41139;SDS011;26881;48.784;9.192;2022-08-19T07:57:47;21.38;;;19.17;;
41139;SDS011;26881;48.784;9.192;2022-08-19T08:03:12;22.27;;;19.25;;
41139;SDS011;26881;48.784;9.192;2022-08-19T08:08:36;22.77;;;19.35;;
41139;SDS011;26881;48.784;9.192;2022-08-19T08:14:06;23.50;;;20.98;;
41139;SDS011;26881;48.784;9.192;2022-08-19T08:19:49;23.13;;;20.35;;
41139;SDS011;26881;48.784;9.192;2022-08-19T08:25:16;24.25;;;21.85;;
41139;SDS011;26881;48.784;9.192;2022-08-19T08:30:41;25.42;;;22.70;;
41139;SDS011;26881;48.784;9.192;2022-08-19T08:36:05;23.25;;;20.75;;
41139;SDS011;26881;48.784;9.192;2022-08-19T08:41:35;22.38;;;19.67;;
41139;SDS011;26881;48.784;9.192;2022-08-19T08:47:04;23.90;;;20.35;;
41139;SDS011;26881;48.784;9.192;2022-08-19T08:52:36;28.65;;;21.20;;
41139;SDS011;26881;48.784;9.192;2022-08-19T08:58:09;21.70;;;19.45;;
41139;SDS011;26881;48.784;9.192;2022-08-19T09:03:37;28.00;;;20.00;;
41139;SDS011;26881;48.784;9.192;2022-08-19T09:09:05;22.95;;;19.13;;
41139;SDS011;26881;48.784;9.192;2022-08-19T09:14:40;24.17;;;18.73;;
41139;SDS011;26881;48.784;9.192;2022-08-19T09:20:18;21.92;;;19.67;;
41139;SDS011;26881;48.784;9.192;2022-08-19T09:25:41;24.45;;;18.05;;
41139;SDS011;26881;48.784;9.192;2022-08-19T09:31:03;26.15;;;19.50;;
41139;SDS011;26881;48.784;9.192;2022-08-19T09:36:26;19.35;;;17.45;;
41139;SDS011;26881;48.784;9.192;2022-08-19T09:41:55;18.83;;;16.85;;
41139;SDS011;26881;48.784;9.192;2022-08-19T09:47:18;20.52;;;17.10;;
41139;SDS011;26881;48.784;9.192;2022-08-19T09:52:40;18.20;;;16.05;;
41139;SDS011;26881;48.784;9.192;2022-08-19T09:58:16;18.00;;;15.10;;
41139;SDS011;26881;48.784;9.192;2022-08-19T10:03:37;15.90;;;13.93;;
41139;SDS011;26881;48.784;9.192;2022-08-19T10:08:59;22.00;;;14.38;;
41139;SDS011;26881;48.784;9.192;2022-08-19T10:14:22;19.00;;;14.77;;
41139;SDS011;26881;48.784;9.192;2022-08-19T10:19:45;16.98;;;13.88;;
41139;SDS011;26881;48.784;9.192;2022-08-19T10:25:16;17.42;;;12.18;;
41139;SDS011;26881;48.784;9.192;2022-08-19T10:30:39;15.13;;;12.98;;
41139;SDS011;26881;48.784;9.192;2022-08-19T10:36:03;17.20;;;12.73;;
41139;SDS011;26881;48.784;9.192;2022-08-19T10:41:28;15.50;;;11.48;;
41139;SDS011;26881;48.784;9.192;2022-08-19T10:46:52;14.05;;;12.00;;
41139;SDS011;26881;48.784;9.192;2022-08-19T10:52:17;17.58;;;12.27;;
41139;SDS011;26881;48.784;9.192;2022-08-19T10:57:59;12.48;;;11.07;;
41139;SDS011;26881;48.784;9.192;2022-08-19T11:03:25;15.00;;;10.80;;
41139;SDS011;26881;48.784;9.192;2022-08-19T11:08:51;13.38;;;10.27;;
41139;SDS011;26881;48.784;9.192;2022-08-19T11:14:15;14.52;;;8.65;;
41139;SDS011;26881;48.784;9.192;2022-08-19T11:19:38;10.30;;;9.18;;
41139;SDS011;26881;48.784;9.192;2022-08-19T11:25:00;9.57;;;8.60;;
41139;SDS011;26881;48.784;9.192;2022-08-19T11:30:22;10.88;;;8.50;;
41139;SDS011;26881;48.784;9.192;2022-08-19T11:35:44;11.85;;;8.60;;
41139;SDS011;26881;48.784;9.192;2022-08-19T11:41:06;11.93;;;8.35;;
41139;SDS011;26881;48.784;9.192;2022-08-19T11:46:28;10.18;;;7.40;;
41139;SDS011;26881;48.784;9.192;2022-08-19T11:51:50;10.68;;;8.30;;
41139;SDS011;26881;48.784;9.192;2022-08-19T11:57:14;9.98;;;7.97;;
41139;SDS011;26881;48.784;9.192;2022-08-19T12:02:38;15.43;;;8.15;;
41139;SDS011;26881;48.784;9.192;2022-08-19T12:08:00;10.52;;;8.00;;
41139;SDS011;26881;48.784;9.192;2022-08-19T12:13:22;9.00;;;7.65;;
41139;SDS011;26881;48.784;9.192;2022-08-19T12:18:44;16.92;;;13.40;;
41139;SDS011;26881;48.784;9.192;2022-08-19T12:24:12;17.33;;;12.55;;
41139;SDS011;26881;48.784;9.192;2022-08-19T12:29:34;15.68;;;12.85;;
41139;SDS011;26881;48.784;9.192;2022-08-19T12:34:55;13.82;;;12.40;;
41139;SDS011;26881;48.784;9.192;2022-08-19T12:40:17;14.98;;;12.50;;
41139;SDS011;26881;48.784;9.192;2022-08-19T12:45:40;16.00;;;13.20;;
41139;SDS011;26881;48.784;9.192;2022-08-19T12:51:07;16.25;;;12.48;;
41139;SDS011;26881;48.784;9.192;2022-08-19T12:56:31;15.25;;;11.70;;
41139;SDS011;26881;48.784;9.192;2022-08-19T13:01:54;16.45;;;11.02;;
41139;SDS011;26881;48.784;9.192;2022-08-19T13:07:16;14.35;;;10.75;;
41139;SDS011;26881;48.784;9.192;2022-08-19T13:12:38;14.30;;;10.30;;
41139;SDS011;26881;48.784;9.192;2022-08-19T13:18:00;12.75;;;10.88;;
41139;SDS011;26881;48.784;9.192;2022-08-19T13:23:22;11.68;;;10.40;;
41139;SDS011;26881;48.784;9.192;2022-08-19T13:28:44;15.85;;;12.20;;
41139;SDS011;26881;48.784;9.192;2022-08-19T13:34:27;16.85;;;15.15;;
41139;SDS011;26881;48.784;9.192;2022-08-19T13:39:51;18.02;;;16.25;;
41139;SDS011;26881;48.784;9.192;2022-08-19T13:45:14;19.98;;;17.92;;
41139;SDS011;26881;48.784;9.192;2022-08-19T13:50:40;24.58;;;21.98;;
41139;SDS011;26881;48.784;9.192;2022-08-19T13:56:05;23.77;;;21.27;;
41139;SDS011;26881;48.784;9.192;2022-08-19T14:01:27;27.48;;;24.55;;
41139;SDS011;26881;48.784;9.192;2022-08-19T14:06:49;27.55;;;24.52;;
41139;SDS011;26881;48.784;9.192;2022-08-19T14:12:11;29.80;;;25.73;;
41139;SDS011;26881;48.784;9.192;2022-08-19T14:17:33;26.58;;;23.75;;
41139;SDS011;26881;48.784;9.192;2022-08-19T14:22:56;26.25;;;23.48;;
41139;SDS011;26881;48.784;9.192;2022-08-19T14:28:17;25.25;;;21.92;;
41139;SDS011;26881;48.784;9.192;2022-08-19T14:33:39;24.05;;;21.52;;
41139;SDS011;26881;48.784;9.192;2022-08-19T14:39:02;23.38;;;21.05;;
41139;SDS011;26881;48.784;9.192;2022-08-19T14:44:27;23.80;;;20.10;;
41139;SDS011;26881;48.784;9.192;2022-08-19T14:49:50;22.63;;;19.80;;
41139;SDS011;26881;48.784;9.192;2022-08-19T14:55:13;19.42;;;17.45;;
41139;SDS011;26881;48.784;9.192;2022-08-19T15:00:35;19.38;;;17.30;;
41139;SDS011;26881;48.784;9.192;2022-08-19T15:05:58;19.20;;;16.35;;
41139;SDS011;26881;48.784;9.192;2022-08-19T15:11:22;17.85;;;16.02;;
41139;SDS011;26881;48.784;9.192;2022-08-19T15:16:47;18.00;;;16.00;;
41139;SDS011;26881;48.784;9.192;2022-08-19T15:22:09;20.15;;;16.23;;
41139;SDS011;26881;48.784;9.192;2022-08-19T15:27:31;17.38;;;15.60;;
41139;SDS011;26881;48.784;9.192;2022-08-19T15:32:53;17.55;;;15.80;;
41139;SDS011;26881;48.784;9.192;2022-08-19T15:38:17;17.35;;;15.60;;
41139;SDS011;26881;48.784;9.192;2022-08-19T15:43:42;17.15;;;15.40;;
41139;SDS011;26881;48.784;9.192;2022-08-19T15:49:05;15.68;;;13.98;;
41139;SDS011;26881;48.784;9.192;2022-08-19T15:54:27;15.60;;;14.07;;
41139;SDS011;26881;48.784;9.192;2022-08-19T15:59:49;16.48;;;13.18;;
41139;SDS011;26881;48.784;9.192;2022-08-19T16:05:32;14.30;;;13.00;;
41139;SDS011;26881;48.784;9.192;2022-08-19T16:11:12;14.82;;;13.35;;
41139;SDS011;26881;48.784;9.192;2022-08-19T16:16:40;19.75;;;15.73;;
41139;SDS011;26881;48.784;9.192;2022-08-19T16:22:02;18.15;;;16.45;;
41139;SDS011;26881;48.784;9.192;2022-08-19T16:27:25;17.70;;;15.88;;
41139;SDS011;26881;48.784;9.192;2022-08-19T16:32:47;18.58;;;16.65;;
41139;SDS011;26881;48.784;9.192;2022-08-19T16:38:09;19.65;;;17.65;;
41139;SDS011;26881;48.784;9.192;2022-08-19T16:43:32;19.52;;;17.63;;
41139;SDS011;26881;48.784;9.192;2022-08-19T16:48:54;19.35;;;17.38;;
41139;SDS011;26881;48.784;9.192;2022-08-19T16:54:16;18.80;;;16.90;;
41139;SDS011;26881;48.784;9.192;2022-08-19T16:59:38;20.52;;;18.33;;
41139;SDS011;26881;48.784;9.192;2022-08-19T17:05:09;19.60;;;17.70;;
41139;SDS011;26881;48.784;9.192;2022-08-19T17:10:31;20.00;;;17.08;;
41139;SDS011;26881;48.784;9.192;2022-08-19T17:15:53;18.92;;;17.02;;
41139;SDS011;26881;48.784;9.192;2022-08-19T17:21:15;19.25;;;17.15;;
41139;SDS011;26881;48.784;9.192;2022-08-19T17:26:37;18.23;;;16.38;;
41139;SDS011;26881;48.784;9.192;2022-08-19T17:31:59;18.08;;;16.27;;
41139;SDS011;26881;48.784;9.192;2022-08-19T17:37:21;19.00;;;15.93;;
41139;SDS011;26881;48.784;9.192;2022-08-19T17:42:46;16.90;;;15.07;;
41139;SDS011;26881;48.784;9.192;2022-08-19T17:48:08;17.50;;;15.50;;
41139;SDS011;26881;48.784;9.192;2022-08-19T17:53:31;17.17;;;15.65;;
41139;SDS011;26881;48.784;9.192;2022-08-19T17:58:53;15.75;;;14.30;;
41139;SDS011;26881;48.784;9.192;2022-08-19T18:04:21;16.55;;;14.93;;
41139;SDS011;26881;48.784;9.192;2022-08-19T18:09:45;15.82;;;14.23;;
41139;SDS011;26881;48.784;9.192;2022-08-19T18:15:13;16.85;;;15.02;;
41139;SDS011;26881;48.784;9.192;2022-08-19T18:20:35;18.35;;;16.63;;
41139;SDS011;26881;48.784;9.192;2022-08-19T18:25:57;16.85;;;15.25;;
41139;SDS011;26881;48.784;9.192;2022-08-19T18:31:19;16.27;;;14.63;;
41139;SDS011;26881;48.784;9.192;2022-08-19T18:36:43;15.80;;;14.30;;
41139;SDS011;26881;48.784;9.192;2022-08-19T18:42:15;17.42;;;14.35;;
41139;SDS011;26881;48.784;9.192;2022-08-19T18:47:56;16.45;;;14.43;;
41139;SDS011;26881;48.784;9.192;2022-08-19T18:53:48;16.48;;;14.88;;
41139;SDS011;26881;48.784;9.192;2022-08-19T18:59:11;17.60;;;14.75;;
41139;SDS011;26881;48.784;9.192;2022-08-19T19:04:35;16.60;;;14.68;;
41139;SDS011;26881;48.784;9.192;2022-08-19T19:09:58;15.40;;;13.93;;
41139;SDS011;26881;48.784;9.192;2022-08-19T19:15:20;16.38;;;14.77;;
41139;SDS011;26881;48.784;9.192;2022-08-19T19:20:42;18.05;;;16.23;;
41139;SDS011;26881;48.784;9.192;2022-08-19T19:26:04;19.17;;;17.25;;
41139;SDS011;26881;48.784;9.192;2022-08-19T19:31:27;18.83;;;17.02;;
41139;SDS011;26881;48.784;9.192;2022-08-19T19:36:50;17.23;;;15.43;;
41139;SDS011;26881;48.784;9.192;2022-08-19T19:42:13;16.45;;;14.95;;
41139;SDS011;26881;48.784;9.192;2022-08-19T19:47:41;15.60;;;13.93;;
41139;SDS011;26881;48.784;9.192;2022-08-19T19:53:04;15.27;;;13.85;;
41139;SDS011;26881;48.784;9.192;2022-08-19T19:58:27;16.02;;;14.35;;
41139;SDS011;26881;48.784;9.192;2022-08-19T20:03:50;15.70;;;14.15;;
41139;SDS011;26881;48.784;9.192;2022-08-19T20:09:12;15.50;;;14.00;;
41139;SDS011;26881;48.784;9.192;2022-08-19T20:14:40;14.38;;;12.98;;
41139;SDS011;26881;48.784;9.192;2022-08-19T20:20:02;13.80;;;12.10;;
41139;SDS011;26881;48.784;9.192;2022-08-19T20:25:24;12.38;;;11.15;;
41139;SDS011;26881;48.784;9.192;2022-08-19T20:30:46;13.73;;;12.20;;
41139;SDS011;26881;48.784;9.192;2022-08-19T20:36:08;11.60;;;10.50;;
41139;SDS011;26881;48.784;9.192;2022-08-19T20:41:30;17.05;;;12.93;;
41139;SDS011;26881;48.784;9.192;2022-08-19T20:46:53;11.98;;;10.73;;
41139;SDS011;26881;48.784;9.192;2022-08-19T20:52:19;10.60;;;9.45;;
41139;SDS011;26881;48.784;9.192;2022-08-19T20:57:41;10.95;;;8.65;;
41139;SDS011;26881;48.784;9.192;2022-08-19T21:03:03;10.02;;;7.68;;
41139;SDS011;26881;48.784;9.192;2022-08-19T21:08:26;7.85;;;6.95;;
41139;SDS011;26881;48.784;9.192;2022-08-19T21:13:48;9.82;;;6.32;;
41139;SDS011;26881;48.784;9.192;2022-08-19T21:19:10;8.57;;;5.22;;
41139;SDS011;26881;48.784;9.192;2022-08-19T21:24:33;4.50;;;4.10;;
41139;SDS011;26881;48.784;9.192;2022-08-19T21:29:55;5.65;;;3.38;;
41139;SDS011;26881;48.784;9.192;2022-08-19T21:35:17;3.83;;;3.20;;
41139;SDS011;26881;48.784;9.192;2022-08-19T21:40:40;4.45;;;3.05;;
41139;SDS011;26881;48.784;9.192;2022-08-19T21:46:02;4.57;;;2.90;;
41139;SDS011;26881;48.784;9.192;2022-08-19T21:51:24;3.25;;;2.47;;
41139;SDS011;26881;48.784;9.192;2022-08-19T21:56:46;4.82;;;2.30;;
41139;SDS011;26881;48.784;9.192;2022-08-19T22:02:08;5.38;;;2.05;;
41139;SDS011;26881;48.784;9.192;2022-08-19T22:07:41;8.38;;;2.00;;
41139;SDS011;26881;48.784;9.192;2022-08-19T22:13:03;1.70;;;1.60;;
41139;SDS011;26881;48.784;9.192;2022-08-19T22:18:25;2.22;;;2.03;;
41139;SDS011;26881;48.784;9.192;2022-08-19T22:23:48;2.38;;;1.60;;
41139;SDS011;26881;48.784;9.192;2022-08-19T22:29:10;1.70;;;1.60;;
41139;SDS011;26881;48.784;9.192;2022-08-19T22:34:36;2.80;;;1.80;;
41139;SDS011;26881;48.784;9.192;2022-08-19T22:39:58;2.38;;;1.77;;
41139;SDS011;26881;48.784;9.192;2022-08-19T22:45:26;2.55;;;1.85;;
41139;SDS011;26881;48.784;9.192;2022-08-19T22:50:49;1.70;;;1.60;;
41139;SDS011;26881;48.784;9.192;2022-08-19T22:56:30;1.50;;;1.38;;
41139;SDS011;26881;48.784;9.192;2022-08-19T23:01:52;2.50;;;1.92;;
41139;SDS011;26881;48.784;9.192;2022-08-19T23:07:15;1.85;;;1.75;;
41139;SDS011;26881;48.784;9.192;2022-08-19T23:12:45;2.35;;;1.70;;
41139;SDS011;26881;48.784;9.192;2022-08-19T23:18:09;2.40;;;1.77;;
41139;SDS011;26881;48.784;9.192;2022-08-19T23:23:31;2.08;;;1.75;;
41139;SDS011;26881;48.784;9.192;2022-08-19T23:28:53;1.98;;;1.70;;
41139;SDS011;26881;48.784;9.192;2022-08-19T23:34:33;1.60;;;1.50;;
41139;SDS011;26881;48.784;9.192;2022-08-19T23:39:55;1.70;;;1.60;;
41139;SDS011;26881;48.784;9.192;2022-08-19T23:45:18;1.50;;;1.40;;
41139;SDS011;26881;48.784;9.192;2022-08-19T23:50:45;2.55;;;1.30;;
41139;SDS011;26881;48.784;9.192;2022-08-19T23:56:07;1.55;;;1.20;;
